Time;durP1;ratioP1;P1;durP2;ratioP2;P2;SDS_P1;SDS_P2;PMS_P1;PMS_P2;Temp;Humidity;BMP_temperature;BMP_pressure;BME280_temperature;BME280_humidity;BME280_pressure;Samples;Min_cycle;Max_cycle;Signal;HPM_P1;HPM_P2
2021/12/02 00:00:11;;;;;;;2.58;1.10;;;6.00;99.90;;;;;;2114480;28;20537;-71
2021/12/02 00:01:15;;;;;;;4.57;1.27;;;6.00;99.90;;;;;;2114812;28;20508;-73
2021/12/02 00:02:17;;;;;;;3.05;1.10;;;6.00;99.90;;;;;;2112415;28;20042;-72
2021/12/02 00:03:18;;;;;;;5.07;1.20;;;6.00;99.90;;;;;;2114022;28;20024;-72
2021/12/02 00:04:19;;;;;;;3.38;1.30;;;5.90;99.90;;;;;;2114254;28;20024;-71
2021/12/02 00:05:19;;;;;;;1.60;1.30;;;6.00;99.90;;;;;;2114256;28;20040;-69
2021/12/02 00:06:20;;;;;;;1.95;1.30;;;6.00;99.90;;;;;;2113674;28;20027;-69
2021/12/02 00:07:21;;;;;;;2.47;1.20;;;5.90;99.90;;;;;;2113895;28;20030;-70
2021/12/02 00:08:21;;;;;;;2.50;1.20;;;5.90;99.90;;;;;;2113695;28;20024;-69
2021/12/02 00:09:24;;;;;;;2.60;1.15;;;5.90;99.90;;;;;;2113655;28;20501;-69
2021/12/02 00:10:30;;;;;;;2.42;1.20;;;5.90;99.90;;;;;;2113820;28;20035;-71
2021/12/02 00:11:30;;;;;;;2.33;1.00;;;5.90;99.90;;;;;;2113380;28;20840;-70
2021/12/02 00:12:31;;;;;;;1.92;1.20;;;5.90;99.90;;;;;;2113418;28;20023;-70
2021/12/02 00:14:52;;;;;;;2.75;1.20;;;5.90;99.90;;;;;;2114705;28;20032;-70
2021/12/02 00:15:57;;;;;;;2.80;1.20;;;5.90;99.90;;;;;;2114279;28;20024;-71
2021/12/02 00:18:29;;;;;;;2.22;1.10;;;5.90;99.90;;;;;;2113924;28;20019;-74
2021/12/02 00:22:03;;;;;;;2.28;1.30;;;5.90;99.90;;;;;;2113989;28;20024;-74
2021/12/02 00:23:33;;;;;;;2.85;1.17;;;5.80;99.90;;;;;;2114169;28;20110;-70
2021/12/02 00:24:39;;;;;;;2.20;1.20;;;5.80;99.90;;;;;;2109091;28;20038;-72
2021/12/02 00:25:46;;;;;;;1.73;1.20;;;5.80;99.90;;;;;;2113895;28;20026;-70
2021/12/02 00:26:49;;;;;;;3.33;1.40;;;5.90;99.90;;;;;;2114680;28;20024;-73
2021/12/02 00:27:50;;;;;;;2.60;1.10;;;5.80;99.90;;;;;;2116880;28;20097;-71
2021/12/02 00:28:53;;;;;;;1.63;1.17;;;5.80;99.90;;;;;;2119032;28;20031;-75
2021/12/02 00:29:57;;;;;;;1.73;1.20;;;5.80;99.90;;;;;;2117930;28;20037;-71
2021/12/02 00:31:01;;;;;;;1.77;1.20;;;5.80;99.90;;;;;;2107739;28;20020;-70
2021/12/02 00:32:06;;;;;;;1.80;1.23;;;5.70;99.90;;;;;;2113858;28;20043;-71
2021/12/02 00:33:07;;;;;;;1.83;1.17;;;5.70;99.90;;;;;;2114978;28;20043;-72
2021/12/02 00:34:09;;;;;;;2.72;1.23;;;5.70;99.90;;;;;;2113949;28;20476;-71
2021/12/02 00:35:11;;;;;;;2.25;1.38;;;5.80;99.90;;;;;;2114606;28;20107;-72
2021/12/02 00:36:15;;;;;;;1.80;1.30;;;5.80;99.90;;;;;;2105215;28;20027;-73
2021/12/02 00:37:16;;;;;;;2.17;1.33;;;5.80;99.90;;;;;;2105249;28;20028;-73
2021/12/02 00:38:19;;;;;;;3.42;1.40;;;5.80;99.90;;;;;;2114262;28;20072;-71
2021/12/02 00:39:20;;;;;;;1.92;1.17;;;5.80;99.90;;;;;;2114566;28;20571;-71
2021/12/02 00:40:20;;;;;;;2.78;1.38;;;5.80;99.90;;;;;;2114544;28;20089;-71
2021/12/02 00:41:24;;;;;;;2.28;1.40;;;5.80;99.90;;;;;;2115044;28;20115;-71
2021/12/02 00:42:25;;;;;;;2.55;1.40;;;5.80;99.90;;;;;;2113701;28;20046;-71
2021/12/02 00:43:27;;;;;;;1.30;1.20;;;5.80;99.90;;;;;;2113871;28;20023;-73
2021/12/02 00:44:31;;;;;;;1.88;1.20;;;5.80;99.90;;;;;;2113914;28;20044;-73
2021/12/02 00:45:32;;;;;;;2.70;1.35;;;5.80;99.90;;;;;;2113791;28;20027;-72
2021/12/02 00:46:34;;;;;;;2.13;1.45;;;5.70;99.90;;;;;;2113686;28;20039;-72
2021/12/02 00:47:37;;;;;;;1.60;1.30;;;5.70;99.90;;;;;;2113674;28;20404;-72
2021/12/02 00:48:39;;;;;;;2.20;1.40;;;5.70;99.90;;;;;;2113710;28;20024;-72
2021/12/02 00:49:40;;;;;;;2.70;1.30;;;5.70;99.90;;;;;;2113649;28;20491;-72
2021/12/02 00:50:44;;;;;;;2.05;1.60;;;5.70;99.90;;;;;;2115571;28;20039;-72
2021/12/02 00:51:51;;;;;;;2.97;1.48;;;5.70;99.90;;;;;;2121675;27;20034;-73
2021/12/02 00:52:55;;;;;;;3.40;1.63;;;5.70;99.90;;;;;;2122550;27;20031;-72
2021/12/02 00:54:00;;;;;;;1.83;1.30;;;5.60;99.90;;;;;;2122502;28;20482;-71
2021/12/02 00:55:03;;;;;;;2.33;1.50;;;5.70;99.90;;;;;;2121748;28;20489;-72
2021/12/02 00:56:06;;;;;;;1.65;1.38;;;5.60;99.90;;;;;;2121142;28;20039;-72
2021/12/02 00:57:10;;;;;;;2.42;1.42;;;5.70;99.90;;;;;;2121028;28;20025;-70
2021/12/02 00:58:18;;;;;;;2.10;1.38;;;5.60;99.90;;;;;;2122362;27;20475;-72
2021/12/02 00:59:20;;;;;;;2.53;1.40;;;5.60;99.90;;;;;;2122276;27;20035;-71
2021/12/02 01:00:21;;;;;;;1.70;1.40;;;5.70;99.90;;;;;;2121505;28;20031;-72
2021/12/02 01:01:24;;;;;;;2.55;1.40;;;5.70;99.90;;;;;;2121660;28;20099;-72
2021/12/02 01:02:26;;;;;;;2.83;1.38;;;5.80;99.90;;;;;;2121997;27;20031;-72
2021/12/02 01:03:32;;;;;;;2.13;1.50;;;5.80;99.90;;;;;;2121623;27;20023;-72
2021/12/02 01:04:33;;;;;;;3.88;1.58;;;5.80;99.90;;;;;;2121801;28;20119;-72
2021/12/02 01:05:34;;;;;;;2.92;1.60;;;5.80;99.90;;;;;;2122528;27;20436;-71
2021/12/02 01:06:35;;;;;;;4.53;1.60;;;5.80;99.90;;;;;;2121663;28;20123;-73
2021/12/02 01:07:37;;;;;;;2.20;1.60;;;5.80;99.90;;;;;;2121555;28;20027;-72
2021/12/02 01:08:40;;;;;;;4.03;1.67;;;5.80;99.90;;;;;;2121466;27;20154;-73
2021/12/02 01:09:41;;;;;;;3.08;1.60;;;5.80;99.90;;;;;;2121543;28;20556;-73
2021/12/02 01:10:41;;;;;;;3.80;1.50;;;5.80;99.90;;;;;;2122119;27;20061;-73
2021/12/02 01:11:42;;;;;;;3.75;1.70;;;5.80;99.90;;;;;;2120838;28;20027;-73
2021/12/02 01:12:43;;;;;;;4.30;1.58;;;5.80;99.90;;;;;;2121392;28;20031;-72
2021/12/02 01:13:45;;;;;;;3.78;1.50;;;5.90;99.90;;;;;;2122296;27;20031;-72
2021/12/02 01:14:46;;;;;;;3.55;1.50;;;5.90;99.90;;;;;;2114148;28;20380;-73
2021/12/02 01:15:47;;;;;;;3.60;1.90;;;5.90;99.90;;;;;;2114147;28;20047;-69
2021/12/02 01:16:47;;;;;;;3.00;1.65;;;5.90;99.90;;;;;;2122584;28;20027;-70
2021/12/02 01:17:48;;;;;;;3.53;1.80;;;5.80;99.90;;;;;;2122199;28;20030;-69
2021/12/02 01:18:49;;;;;;;3.47;1.80;;;5.80;99.90;;;;;;2113619;28;20020;-72
2021/12/02 01:19:49;;;;;;;3.58;1.70;;;5.80;99.90;;;;;;2113630;28;20028;-71
2021/12/02 01:20:52;;;;;;;3.95;1.60;;;5.90;99.90;;;;;;2113504;28;20055;-70
2021/12/02 01:21:54;;;;;;;4.13;1.63;;;5.80;99.90;;;;;;2112017;28;20123;-70
2021/12/02 01:22:58;;;;;;;3.83;1.50;;;5.80;99.90;;;;;;2112820;28;20031;-69
2021/12/02 01:24:02;;;;;;;5.32;1.50;;;5.90;99.90;;;;;;2113663;28;20031;-70
2021/12/02 01:25:05;;;;;;;5.80;1.77;;;5.90;99.90;;;;;;2113586;28;20035;-70
2021/12/02 01:26:07;;;;;;;4.72;1.75;;;5.90;99.90;;;;;;2104390;28;20558;-73
2021/12/02 01:27:11;;;;;;;3.85;1.50;;;5.90;99.90;;;;;;2096584;28;20029;-69
2021/12/02 01:28:12;;;;;;;4.00;1.70;;;5.90;99.90;;;;;;2113418;28;20080;-70
2021/12/02 01:29:13;;;;;;;3.17;1.42;;;5.90;99.90;;;;;;2117816;27;20110;-71
2021/12/02 01:30:15;;;;;;;5.60;1.92;;;5.90;99.90;;;;;;2122271;27;20391;-70
2021/12/02 01:31:16;;;;;;;6.30;1.80;;;5.90;99.90;;;;;;2123754;27;20551;-71
2021/12/02 01:32:17;;;;;;;3.40;1.50;;;5.90;99.90;;;;;;2122877;27;20071;-70
2021/12/02 01:33:20;;;;;;;2.97;1.60;;;5.90;99.90;;;;;;2123474;27;20039;-69
2021/12/02 01:34:24;;;;;;;4.15;1.67;;;5.90;99.90;;;;;;2123659;27;20475;-72
2021/12/02 01:35:26;;;;;;;5.85;1.50;;;6.00;99.90;;;;;;2123055;27;20058;-70
2021/12/02 01:36:34;;;;;;;4.30;1.70;;;5.90;99.90;;;;;;2123091;27;20035;-71
2021/12/02 01:37:34;;;;;;;4.22;1.67;;;5.90;99.90;;;;;;2123702;27;20472;-71
2021/12/02 01:38:35;;;;;;;3.28;1.60;;;5.90;99.90;;;;;;2123471;27;20035;-72
2021/12/02 01:39:36;;;;;;;2.30;1.50;;;5.90;99.90;;;;;;2123701;27;20035;-71
2021/12/02 01:40:37;;;;;;;3.90;1.60;;;5.80;99.90;;;;;;2123594;27;20045;-71
2021/12/02 01:41:47;;;;;;;3.92;1.50;;;5.80;99.90;;;;;;2122777;27;20470;-70
2021/12/02 01:42:52;;;;;;;4.32;1.40;;;5.80;99.90;;;;;;2123480;27;20114;-71
2021/12/02 01:43:54;;;;;;;2.97;1.33;;;5.80;99.90;;;;;;2123579;27;20031;-71
2021/12/02 01:45:00;;;;;;;5.80;1.60;;;5.80;99.90;;;;;;2123031;27;20507;-71
2021/12/02 01:46:02;;;;;;;3.13;1.60;;;5.70;99.90;;;;;;2122854;27;20039;-71
2021/12/02 01:47:09;;;;;;;4.72;1.63;;;5.70;99.90;;;;;;2123412;27;20046;-71
2021/12/02 01:48:14;;;;;;;3.30;1.50;;;5.70;99.90;;;;;;2123751;27;20028;-72
2021/12/02 01:49:15;;;;;;;5.43;1.67;;;5.70;99.90;;;;;;2123659;27;20019;-71
2021/12/02 01:50:20;;;;;;;4.53;1.50;;;5.70;99.90;;;;;;2114887;28;20531;-71
2021/12/02 01:51:23;;;;;;;5.85;1.75;;;5.70;99.90;;;;;;2115468;27;20038;-70
2021/12/02 01:52:30;;;;;;;8.27;1.80;;;5.80;99.90;;;;;;2122916;27;20479;-70
2021/12/02 01:53:34;;;;;;;3.03;1.50;;;5.70;99.90;;;;;;2123623;27;20034;-72
2021/12/02 01:54:43;;;;;;;3.85;1.60;;;5.70;99.90;;;;;;2123764;27;20031;-71
2021/12/02 01:55:52;;;;;;;5.45;1.67;;;5.70;99.90;;;;;;2123330;27;20102;-71
2021/12/02 01:57:04;;;;;;;5.03;1.55;;;5.70;99.90;;;;;;2123479;27;20081;-70
2021/12/02 01:58:05;;;;;;;4.32;1.80;;;5.60;99.90;;;;;;2122778;27;20030;-72
2021/12/02 01:59:37;;;;;;;4.57;1.50;;;5.60;99.90;;;;;;2114409;28;20127;-71
2021/12/02 02:00:46;;;;;;;6.03;1.90;;;5.60;99.90;;;;;;2110773;27;20047;-71
2021/12/02 02:01:52;;;;;;;4.25;1.80;;;5.60;99.90;;;;;;2122538;27;20023;-71
2021/12/02 02:02:54;;;;;;;7.68;1.80;;;5.50;99.90;;;;;;2123221;27;20098;-72
2021/12/02 02:03:55;;;;;;;3.88;1.58;;;5.50;99.90;;;;;;2123413;27;20565;-71
2021/12/02 02:05:01;;;;;;;4.72;1.70;;;5.40;99.90;;;;;;2123488;27;20380;-71
2021/12/02 02:06:04;;;;;;;4.45;1.60;;;5.40;99.90;;;;;;2123494;27;20388;-71
2021/12/02 02:07:14;;;;;;;4.82;1.83;;;5.40;99.90;;;;;;2122798;27;20080;-71
2021/12/02 02:08:18;;;;;;;4.82;1.50;;;5.30;99.90;;;;;;2122869;27;20140;-71
2021/12/02 02:09:19;;;;;;;2.85;1.77;;;5.30;99.90;;;;;;2123311;27;20031;-71
2021/12/02 02:10:20;;;;;;;5.68;1.80;;;5.30;99.90;;;;;;2123008;27;20597;-70
2021/12/02 02:11:23;;;;;;;3.97;1.77;;;5.20;99.90;;;;;;2122702;27;20646;-70
2021/12/02 02:12:24;;;;;;;3.88;1.67;;;5.20;99.90;;;;;;2121991;27;20476;-71
2021/12/02 02:13:25;;;;;;;6.65;1.67;;;5.20;99.90;;;;;;2122539;27;20384;-71
2021/12/02 02:14:28;;;;;;;6.05;1.70;;;5.10;99.90;;;;;;2122820;27;20098;-71
2021/12/02 02:15:28;;;;;;;3.10;1.50;;;5.20;99.90;;;;;;2123525;27;20055;-74
2021/12/02 02:16:29;;;;;;;4.07;1.80;;;5.20;99.90;;;;;;2123477;27;20128;-71
2021/12/02 02:17:35;;;;;;;4.25;1.60;;;5.20;99.90;;;;;;2122784;27;20035;-72
2021/12/02 02:18:37;;;;;;;4.20;1.52;;;5.20;99.90;;;;;;2115057;27;20503;-72
2021/12/02 02:19:38;;;;;;;4.32;1.70;;;5.20;99.90;;;;;;2122805;27;20043;-71
2021/12/02 02:20:40;;;;;;;3.40;1.52;;;5.20;99.90;;;;;;2123389;27;20031;-71
2021/12/02 02:21:41;;;;;;;5.28;2.00;;;5.20;99.90;;;;;;2122635;27;20103;-72
2021/12/02 02:22:42;;;;;;;3.45;1.58;;;5.20;99.90;;;;;;2123482;27;20053;-72
2021/12/02 02:23:49;;;;;;;4.07;1.38;;;5.20;99.90;;;;;;2123477;27;20027;-71
2021/12/02 02:24:51;;;;;;;3.40;1.60;;;5.20;99.90;;;;;;2123355;27;20571;-71
2021/12/02 02:25:52;;;;;;;4.35;1.75;;;5.20;99.90;;;;;;2123082;27;20555;-71
2021/12/02 02:26:53;;;;;;;9.70;1.98;;;5.20;99.90;;;;;;2123179;27;20031;-70
2021/12/02 02:27:54;;;;;;;3.05;1.40;;;5.20;99.90;;;;;;2122509;27;20035;-71
2021/12/02 02:28:55;;;;;;;2.78;1.48;;;5.20;99.90;;;;;;2122559;27;20102;-71
2021/12/02 02:29:56;;;;;;;6.15;1.80;;;5.20;99.90;;;;;;2123137;27;20027;-71
2021/12/02 02:30:57;;;;;;;4.15;1.73;;;5.20;99.90;;;;;;2122566;27;20054;-71
2021/12/02 02:31:57;;;;;;;5.28;1.80;;;5.20;99.90;;;;;;2112996;28;20024;-70
2021/12/02 02:32:58;;;;;;;6.00;1.98;;;5.10;99.90;;;;;;2113803;28;20809;-70
2021/12/02 02:33:59;;;;;;;6.22;1.70;;;5.20;99.90;;;;;;2122613;27;20528;-72
2021/12/02 02:35:00;;;;;;;5.18;1.80;;;5.20;99.90;;;;;;2123152;27;20038;-70
2021/12/02 02:36:01;;;;;;;4.72;1.88;;;5.20;99.90;;;;;;2123184;27;20102;-71
2021/12/02 02:37:04;;;;;;;4.43;1.63;;;5.20;99.90;;;;;;2123153;27;20484;-70
2021/12/02 02:38:05;;;;;;;3.40;1.88;;;5.20;99.90;;;;;;2123025;27;20031;-72
2021/12/02 02:39:06;;;;;;;5.15;1.90;;;5.20;99.90;;;;;;2122718;27;20054;-72
2021/12/02 02:40:10;;;;;;;3.08;1.70;;;5.20;99.90;;;;;;2122961;27;20438;-72
2021/12/02 02:41:11;;;;;;;3.85;1.65;;;5.20;99.90;;;;;;2123046;27;20168;-70
2021/12/02 02:42:12;;;;;;;6.25;1.90;;;5.20;99.90;;;;;;2122177;27;20030;-72
2021/12/02 02:43:21;;;;;;;5.25;1.60;;;5.20;99.90;;;;;;2122796;27;20082;-70
2021/12/02 02:44:24;;;;;;;5.28;1.90;;;5.20;99.90;;;;;;2123076;27;20023;-70
2021/12/02 02:45:25;;;;;;;5.88;1.85;;;5.20;99.90;;;;;;2123030;27;20402;-72
2021/12/02 02:46:39;;;;;;;4.40;1.70;;;5.20;99.90;;;;;;2122878;27;20038;-70
2021/12/02 02:47:40;;;;;;;4.50;1.60;;;5.20;99.90;;;;;;2122986;27;20028;-70
2021/12/02 02:48:41;;;;;;;7.38;2.00;;;5.20;99.90;;;;;;2122973;27;20530;-70
2021/12/02 02:49:41;;;;;;;7.63;1.65;;;5.20;99.90;;;;;;2122964;27;20015;-71
2021/12/02 02:50:42;;;;;;;4.30;1.65;;;5.20;99.90;;;;;;2122452;27;20023;-71
2021/12/02 02:51:44;;;;;;;4.75;1.70;;;5.20;99.90;;;;;;2121717;27;20058;-70
2021/12/02 02:52:47;;;;;;;5.82;1.88;;;5.20;99.90;;;;;;2122991;27;20030;-71
2021/12/02 02:53:54;;;;;;;3.72;1.50;;;5.10;99.90;;;;;;2122280;27;20042;-69
2021/12/02 02:54:55;;;;;;;5.43;1.85;;;5.10;99.90;;;;;;2122483;27;20091;-70
2021/12/02 02:56:12;;;;;;;5.35;1.90;;;5.00;99.90;;;;;;2122902;27;20031;-71
2021/12/02 02:57:17;;;;;;;4.82;1.70;;;5.10;99.90;;;;;;2122407;27;20039;-71
2021/12/02 02:58:47;;;;;;;5.07;1.63;;;5.10;99.90;;;;;;2114249;27;20603;-71
2021/12/02 03:02:24;;;;;;;6.22;1.70;;;5.10;99.90;;;;;;2124340;27;20034;-71
2021/12/02 03:03:40;;;;;;;6.70;1.90;;;5.10;99.90;;;;;;2125234;27;20031;-71
2021/12/02 03:06:09;;;;;;;4.47;2.00;;;5.10;99.90;;;;;;2128407;27;20035;-71
2021/12/02 03:07:19;;;;;;;4.65;1.80;;;5.10;99.90;;;;;;2130563;27;20019;-71
2021/12/02 03:08:23;;;;;;;4.20;1.53;;;5.10;99.90;;;;;;2123539;27;20400;-72
2021/12/02 03:10:44;;;;;;;5.40;1.88;;;5.10;99.90;;;;;;2122895;27;20377;-71
2021/12/02 03:11:49;;;;;;;5.05;1.92;;;5.10;99.90;;;;;;2122016;27;20027;-71
2021/12/02 03:12:59;;;;;;;5.53;1.85;;;5.00;99.90;;;;;;2122900;27;20046;-71
2021/12/02 03:14:08;;;;;;;5.63;1.85;;;5.10;99.90;;;;;;2123263;27;20107;-72
2021/12/02 03:17:30;;;;;;;5.90;1.67;;;5.10;99.90;;;;;;2123207;27;20029;-69
2021/12/02 03:18:31;;;;;;;6.32;2.00;;;5.10;99.90;;;;;;2122933;27;20078;-70
2021/12/02 03:19:32;;;;;;;5.35;1.95;;;5.10;99.90;;;;;;2122921;27;20027;-70
2021/12/02 03:20:32;;;;;;;4.90;1.70;;;5.10;99.90;;;;;;2122826;27;20464;-70
2021/12/02 03:21:33;;;;;;;4.22;1.83;;;5.10;99.90;;;;;;2122054;27;20030;-70
2021/12/02 03:22:35;;;;;;;4.18;1.70;;;5.10;99.90;;;;;;2122679;27;20550;-70
2021/12/02 03:23:53;;;;;;;2.95;1.77;;;5.10;99.90;;;;;;2122012;27;20030;-71
2021/12/02 03:24:54;;;;;;;4.93;1.98;;;5.00;99.90;;;;;;2122511;27;20141;-71
2021/12/02 03:25:55;;;;;;;3.85;1.80;;;5.00;99.90;;;;;;2122862;27;20023;-70
2021/12/02 03:26:55;;;;;;;2.17;1.70;;;5.00;99.90;;;;;;2122889;27;20103;-71
2021/12/02 03:27:56;;;;;;;3.15;1.60;;;5.00;99.90;;;;;;2122466;27;20031;-71
2021/12/02 03:28:57;;;;;;;3.20;1.70;;;5.10;99.90;;;;;;2122343;27;20031;-72
2021/12/02 03:29:57;;;;;;;5.40;1.85;;;5.10;99.90;;;;;;2122987;27;20487;-70
2021/12/02 03:31:02;;;;;;;6.03;1.85;;;5.10;99.90;;;;;;2122979;27;20023;-71
2021/12/02 03:32:04;;;;;;;6.63;1.92;;;5.10;99.90;;;;;;2121921;27;20407;-72
2021/12/02 03:33:04;;;;;;;4.18;1.88;;;5.10;99.90;;;;;;2123350;27;20023;-71
2021/12/02 03:34:07;;;;;;;4.03;1.65;;;5.20;99.90;;;;;;2123471;27;20203;-72
2021/12/02 03:35:08;;;;;;;5.63;1.70;;;5.20;99.90;;;;;;2123756;27;20035;-70
2021/12/02 03:36:09;;;;;;;4.82;1.88;;;5.20;99.90;;;;;;2123597;27;20031;-70
2021/12/02 03:37:10;;;;;;;4.82;1.75;;;5.20;99.90;;;;;;2123528;27;20031;-71
2021/12/02 03:38:11;;;;;;;4.65;1.75;;;5.20;99.90;;;;;;2123524;27;20027;-71
2021/12/02 03:39:12;;;;;;;6.65;1.70;;;5.30;99.90;;;;;;2122970;27;20023;-71
2021/12/02 03:40:13;;;;;;;3.97;1.50;;;5.30;99.90;;;;;;2122192;27;20079;-70
2021/12/02 03:41:14;;;;;;;4.05;1.77;;;5.30;99.90;;;;;;2123304;27;20190;-71
2021/12/02 03:42:15;;;;;;;6.40;1.90;;;5.30;99.90;;;;;;2122482;27;20038;-70
2021/12/02 03:43:15;;;;;;;5.93;2.00;;;5.30;99.90;;;;;;2123031;27;20042;-71
2021/12/02 03:44:16;;;;;;;4.85;1.80;;;5.30;99.90;;;;;;2122337;27;20050;-71
2021/12/02 03:45:17;;;;;;;5.22;1.80;;;5.30;99.90;;;;;;2122205;27;20035;-71
2021/12/02 03:46:21;;;;;;;10.50;1.95;;;5.30;99.90;;;;;;2122228;27;20108;-72
2021/12/02 03:47:21;;;;;;;5.55;1.90;;;5.20;99.90;;;;;;2123220;27;20027;-72
2021/12/02 03:48:22;;;;;;;3.80;1.60;;;5.30;99.90;;;;;;2122868;27;20051;-72
2021/12/02 03:49:22;;;;;;;8.38;1.80;;;5.20;99.90;;;;;;2122981;27;20061;-71
2021/12/02 03:50:23;;;;;;;5.25;1.60;;;5.20;99.90;;;;;;2122145;27;20027;-72
2021/12/02 03:51:24;;;;;;;6.82;2.13;;;5.20;99.90;;;;;;2121617;27;20058;-72
2021/12/02 03:52:25;;;;;;;6.38;1.80;;;5.30;99.90;;;;;;2122515;27;20129;-72
2021/12/02 03:53:25;;;;;;;5.50;1.90;;;5.20;99.90;;;;;;2123089;27;20020;-71
2021/12/02 03:54:26;;;;;;;3.17;1.60;;;5.30;99.90;;;;;;2122219;27;20047;-71
2021/12/02 03:55:26;;;;;;;3.78;1.70;;;5.20;99.90;;;;;;2115915;27;20530;-72
2021/12/02 03:56:27;;;;;;;5.32;2.00;;;5.20;99.90;;;;;;2113928;28;20039;-72
2021/12/02 03:57:31;;;;;;;6.57;1.70;;;5.20;99.90;;;;;;2113821;28;20039;-71
2021/12/02 03:58:32;;;;;;;4.45;2.03;;;5.10;99.90;;;;;;2114240;28;20032;-72
2021/12/02 03:59:33;;;;;;;6.63;2.05;;;5.10;99.90;;;;;;2114468;28;20027;-71
2021/12/02 04:00:33;;;;;;;6.88;1.77;;;5.10;99.90;;;;;;2113835;28;20118;-71
2021/12/02 04:01:34;;;;;;;4.63;2.10;;;5.10;99.90;;;;;;2112870;28;20035;-70
2021/12/02 04:02:34;;;;;;;7.50;2.00;;;5.00;99.90;;;;;;2114371;28;20484;-72
2021/12/02 04:03:36;;;;;;;4.50;2.10;;;5.00;99.90;;;;;;2113722;28;20023;-72
2021/12/02 04:04:36;;;;;;;8.27;1.98;;;4.90;99.90;;;;;;2113655;28;20034;-70
2021/12/02 04:05:37;;;;;;;6.72;2.00;;;5.00;99.90;;;;;;2114422;28;20518;-71
2021/12/02 04:06:40;;;;;;;7.13;2.03;;;4.90;99.90;;;;;;2114234;28;20029;-71
2021/12/02 04:07:40;;;;;;;6.18;2.03;;;4.90;99.90;;;;;;2114209;27;20070;-71
2021/12/02 04:08:48;;;;;;;7.10;2.00;;;4.90;99.90;;;;;;2114197;28;20024;-72
2021/12/02 04:09:49;;;;;;;6.28;2.10;;;4.90;99.90;;;;;;2114660;28;20023;-71
2021/12/02 04:10:58;;;;;;;4.53;1.98;;;4.90;99.90;;;;;;2114228;28;20094;-72
2021/12/02 04:12:04;;;;;;;4.93;2.25;;;4.90;99.90;;;;;;2113251;28;20450;-72
2021/12/02 04:14:21;;;;;;;6.00;2.00;;;4.90;99.90;;;;;;2114662;28;20035;-72
2021/12/02 04:15:34;;;;;;;4.57;1.98;;;4.90;99.90;;;;;;2114189;28;20061;-72
2021/12/02 04:16:37;;;;;;;5.45;1.90;;;4.90;99.90;;;;;;2114398;28;20033;-71
2021/12/02 04:17:41;;;;;;;7.05;2.28;;;4.90;99.90;;;;;;2114793;28;20088;-72
2021/12/02 04:18:42;;;;;;;5.10;1.95;;;4.80;99.90;;;;;;2114524;28;20031;-72
2021/12/02 04:19:43;;;;;;;5.57;2.15;;;4.90;99.90;;;;;;2114587;28;20032;-71
2021/12/02 04:20:43;;;;;;;5.78;1.70;;;4.90;99.90;;;;;;2114329;28;20024;-72
2021/12/02 04:21:44;;;;;;;5.25;2.05;;;4.90;99.90;;;;;;2113697;28;20036;-72
2021/12/02 04:22:46;;;;;;;7.47;2.10;;;4.90;99.90;;;;;;2114163;28;20032;-71
2021/12/02 04:23:46;;;;;;;5.35;2.05;;;4.90;99.90;;;;;;2114559;28;20023;-71
2021/12/02 04:24:47;;;;;;;4.82;1.95;;;4.90;99.90;;;;;;2114310;28;20055;-71
2021/12/02 04:25:48;;;;;;;7.45;2.10;;;4.90;99.90;;;;;;2114045;28;20106;-70
2021/12/02 04:26:49;;;;;;;5.72;2.00;;;5.00;99.90;;;;;;2114205;28;20035;-71
2021/12/02 04:27:50;;;;;;;6.18;2.08;;;5.00;99.90;;;;;;2114395;28;20020;-71
2021/12/02 04:28:51;;;;;;;5.93;2.00;;;4.90;99.90;;;;;;2113409;28;20066;-70
2021/12/02 04:29:52;;;;;;;4.80;1.90;;;5.00;99.90;;;;;;2113606;28;20396;-71
2021/12/02 04:30:52;;;;;;;6.93;2.50;;;5.00;99.90;;;;;;2114241;28;20395;-70
2021/12/02 04:31:53;;;;;;;6.72;1.92;;;5.00;99.90;;;;;;2113367;28;20027;-71
2021/12/02 04:32:54;;;;;;;5.10;2.00;;;5.00;99.90;;;;;;2113904;28;20028;-70
2021/12/02 04:33:55;;;;;;;6.82;2.10;;;5.00;99.90;;;;;;2114152;28;20080;-70
2021/12/02 04:34:57;;;;;;;5.18;1.88;;;5.00;99.90;;;;;;2113993;28;20100;-71
2021/12/02 04:35:59;;;;;;;4.43;1.90;;;5.00;99.90;;;;;;2114141;28;20032;-71
2021/12/02 04:37:00;;;;;;;4.20;1.90;;;5.00;99.90;;;;;;2114273;28;20016;-71
2021/12/02 04:38:01;;;;;;;5.85;2.15;;;5.00;99.90;;;;;;2114111;28;20031;-71
2021/12/02 04:39:02;;;;;;;4.70;2.05;;;5.00;99.90;;;;;;2114344;28;20019;-71
2021/12/02 04:40:04;;;;;;;6.78;2.15;;;4.90;99.90;;;;;;2114273;28;20388;-71
2021/12/02 04:41:05;;;;;;;6.43;2.10;;;4.90;99.90;;;;;;2114065;28;20027;-71
2021/12/02 04:42:05;;;;;;;5.22;2.13;;;4.90;99.90;;;;;;2113343;28;20380;-70
2021/12/02 04:43:06;;;;;;;5.97;2.13;;;4.90;99.90;;;;;;2114412;28;20115;-71
2021/12/02 04:44:07;;;;;;;7.00;2.20;;;4.90;99.90;;;;;;2114380;28;20107;-72
2021/12/02 04:45:08;;;;;;;6.25;2.45;;;4.90;99.90;;;;;;2114465;28;20019;-70
2021/12/02 04:46:09;;;;;;;5.03;2.25;;;4.90;99.90;;;;;;2114572;28;20574;-72
2021/12/02 04:47:09;;;;;;;6.90;2.10;;;4.80;99.90;;;;;;2114335;28;20026;-71
2021/12/02 04:48:10;;;;;;;6.63;2.17;;;4.90;99.90;;;;;;2114326;28;20496;-71
2021/12/02 04:49:11;;;;;;;4.88;2.35;;;4.90;99.90;;;;;;2114510;28;20030;-71
2021/12/02 04:50:12;;;;;;;3.78;1.95;;;4.90;99.90;;;;;;2114432;28;20038;-70
2021/12/02 04:51:12;;;;;;;5.03;2.30;;;4.90;99.90;;;;;;2114577;28;20019;-71
2021/12/02 04:52:13;;;;;;;5.70;2.30;;;4.90;99.90;;;;;;2113730;28;20031;-71
2021/12/02 04:53:15;;;;;;;9.52;2.40;;;4.90;99.90;;;;;;2114366;28;20446;-70
2021/12/02 04:54:15;;;;;;;8.18;2.30;;;4.90;99.90;;;;;;2114014;28;20102;-71
2021/12/02 04:55:16;;;;;;;7.78;2.38;;;4.80;99.90;;;;;;2114196;28;20377;-71
2021/12/02 04:56:17;;;;;;;6.53;2.28;;;4.90;99.90;;;;;;2114066;28;20070;-71
2021/12/02 04:57:18;;;;;;;5.00;2.10;;;4.90;99.90;;;;;;2114293;28;20039;-71
2021/12/02 04:58:19;;;;;;;7.15;2.38;;;4.90;99.90;;;;;;2105265;28;20031;-71
2021/12/02 04:59:19;;;;;;;7.22;2.30;;;4.90;99.90;;;;;;2105145;28;20090;-70
2021/12/02 05:00:20;;;;;;;7.45;2.30;;;4.90;99.90;;;;;;2104990;28;20107;-71
2021/12/02 05:01:20;;;;;;;4.93;2.17;;;4.90;99.90;;;;;;2113317;28;20032;-71
2021/12/02 05:02:23;;;;;;;6.13;2.40;;;4.80;99.90;;;;;;2113720;28;20023;-71
2021/12/02 05:03:23;;;;;;;7.40;2.42;;;4.90;99.90;;;;;;2115495;28;20505;-71
2021/12/02 05:04:24;;;;;;;6.38;2.05;;;4.90;99.90;;;;;;2116163;28;20046;-71
2021/12/02 05:05:25;;;;;;;6.53;2.25;;;4.90;99.90;;;;;;2116017;28;20063;-71
2021/12/02 05:06:26;;;;;;;6.25;2.10;;;4.80;99.90;;;;;;2115974;28;20059;-71
2021/12/02 05:07:26;;;;;;;5.22;2.10;;;4.80;99.90;;;;;;2116110;28;20051;-71
2021/12/02 05:08:27;;;;;;;5.97;2.60;;;4.80;99.90;;;;;;2116068;28;20077;-71
2021/12/02 05:09:28;;;;;;;6.45;2.10;;;4.80;99.90;;;;;;2116113;28;20683;-71
2021/12/02 05:10:28;;;;;;;5.50;2.20;;;4.90;99.90;;;;;;2115932;28;20100;-71
2021/12/02 05:11:29;;;;;;;5.47;2.17;;;4.90;99.90;;;;;;2115361;28;20028;-71
2021/12/02 05:12:29;;;;;;;3.50;2.08;;;4.90;99.90;;;;;;2116106;28;20036;-70
2021/12/02 05:13:34;;;;;;;6.13;2.17;;;4.90;99.90;;;;;;2116187;28;20015;-70
2021/12/02 05:14:34;;;;;;;5.85;2.20;;;5.00;99.90;;;;;;2116398;28;20051;-71
2021/12/02 05:15:35;;;;;;;6.03;2.15;;;5.00;99.90;;;;;;2116453;28;20157;-72
2021/12/02 05:16:36;;;;;;;4.57;2.22;;;5.00;99.90;;;;;;2116605;28;20535;-71
2021/12/02 05:17:37;;;;;;;5.32;2.22;;;5.10;99.90;;;;;;2116082;28;20023;-73
2021/12/02 05:18:39;;;;;;;8.20;2.33;;;5.10;99.90;;;;;;2115516;28;20270;-71
2021/12/02 05:19:40;;;;;;;5.53;2.20;;;5.10;99.90;;;;;;2115887;28;20377;-72
2021/12/02 05:20:40;;;;;;;5.80;2.20;;;5.10;99.90;;;;;;2116343;28;20047;-70
2021/12/02 05:21:41;;;;;;;7.35;2.10;;;5.10;99.90;;;;;;2115838;28;20059;-72
2021/12/02 05:22:42;;;;;;;5.18;2.08;;;5.10;99.90;;;;;;2116266;28;20392;-71
2021/12/02 05:23:43;;;;;;;6.90;2.30;;;5.10;99.90;;;;;;2116467;28;20655;-71
2021/12/02 05:24:44;;;;;;;6.53;2.22;;;5.10;99.90;;;;;;2116358;28;20028;-71
2021/12/02 05:25:45;;;;;;;5.07;2.40;;;5.20;99.90;;;;;;2116607;28;20027;-71
2021/12/02 05:26:45;;;;;;;4.78;2.17;;;5.20;99.90;;;;;;2116004;28;20396;-72
2021/12/02 05:27:46;;;;;;;7.20;2.65;;;5.20;99.90;;;;;;2116104;28;20055;-71
2021/12/02 05:28:47;;;;;;;8.13;2.30;;;5.10;99.90;;;;;;2116260;28;20068;-72
2021/12/02 05:29:48;;;;;;;4.50;1.92;;;5.10;99.90;;;;;;2107247;28;20421;-72
2021/12/02 05:30:49;;;;;;;6.95;1.98;;;5.10;99.90;;;;;;2098761;28;20029;-70
2021/12/02 05:31:50;;;;;;;8.45;2.40;;;5.00;99.90;;;;;;2115246;28;20518;-71
2021/12/02 05:32:51;;;;;;;8.90;2.42;;;5.00;99.90;;;;;;2116119;28;20043;-71
2021/12/02 05:33:52;;;;;;;5.53;2.20;;;4.90;99.90;;;;;;2117336;28;20023;-70
2021/12/02 05:34:53;;;;;;;7.85;2.30;;;4.80;99.90;;;;;;2116821;28;20026;-70
2021/12/02 05:35:53;;;;;;;5.65;1.85;;;4.80;99.90;;;;;;2116674;28;20032;-70
2021/12/02 05:36:54;;;;;;;5.53;2.00;;;4.80;99.90;;;;;;2116860;28;20106;-70
2021/12/02 05:37:55;;;;;;;4.85;1.98;;;4.80;99.90;;;;;;2117684;28;20028;-70
2021/12/02 05:38:55;;;;;;;5.95;2.28;;;4.70;99.90;;;;;;2118238;28;20070;-71
2021/12/02 05:39:56;;;;;;;8.27;2.50;;;4.70;99.90;;;;;;2119363;28;20094;-70
2021/12/02 05:40:57;;;;;;;9.05;2.45;;;4.70;99.90;;;;;;2111362;28;20594;-70
2021/12/02 05:41:57;;;;;;;7.22;2.45;;;4.70;99.90;;;;;;2111081;28;20023;-71
2021/12/02 05:42:58;;;;;;;6.22;2.28;;;4.60;99.90;;;;;;2119409;28;20471;-70
2021/12/02 05:44:00;;;;;;;7.30;2.28;;;4.60;99.90;;;;;;2119651;28;20051;-70